createdAt,value
2022-11-06T00:01:55.166Z,24.33
2022-11-06T00:11:57.865Z,28.77
2022-11-06T00:21:59.283Z,22.27
2022-11-06T00:32:00.765Z,28.27
2022-11-06T00:42:02.205Z,25.33
2022-11-06T00:52:03.818Z,24.70
2022-11-06T01:02:05.414Z,28.73
2022-11-06T01:12:14.817Z,26.47
2022-11-06T01:22:16.651Z,24.57
2022-11-06T01:32:18.240Z,26.17
2022-11-06T01:42:21.170Z,29.97
2022-11-06T01:52:23.623Z,34.93
2022-11-06T02:02:25.338Z,48.53
2022-11-06T02:12:38.637Z,49.77
2022-11-06T02:22:46.164Z,56.00
2022-11-06T02:33:01.632Z,62.50
2022-11-06T02:43:07.381Z,52.67
2022-11-06T02:53:12.229Z,88.03
2022-11-06T03:03:45.510Z,74.20
2022-11-06T03:14:17.072Z,74.80
2022-11-06T03:24:31.440Z,68.23
2022-11-06T03:34:42.773Z,73.60
2022-11-06T03:44:48.344Z,55.63
2022-11-06T03:55:00.472Z,50.87
2022-11-06T04:05:08.521Z,49.97
2022-11-06T04:15:14.631Z,54.10
2022-11-06T04:26:09.895Z,57.10
2022-11-06T04:36:30.498Z,42.47
2022-11-06T04:46:57.621Z,37.00
2022-11-06T04:57:00.761Z,52.83
2022-11-06T05:07:02.212Z,35.73
2022-11-06T05:17:03.671Z,30.23
2022-11-06T05:27:05.167Z,35.37
2022-11-06T05:37:06.603Z,22.77
2022-11-06T05:47:08.085Z,23.50
2022-11-06T05:57:09.517Z,27.20
2022-11-06T06:07:11.047Z,18.77
2022-11-06T06:17:12.488Z,16.97
2022-11-06T06:27:13.919Z,19.50
2022-11-06T06:37:19.972Z,16.87
2022-11-06T06:47:21.725Z,17.33
2022-11-06T06:57:23.205Z,16.87
2022-11-06T07:07:24.655Z,14.50
2022-11-06T07:17:27.604Z,16.47
2022-11-06T07:27:29.536Z,18.17
2022-11-06T07:37:30.996Z,15.40
2022-11-06T07:47:32.530Z,20.90
2022-11-06T07:57:36.251Z,16.70
2022-11-06T08:07:37.796Z,13.60
2022-11-06T08:17:39.305Z,13.27
2022-11-06T08:27:40.814Z,11.77
2022-11-06T08:37:42.266Z,13.37
2022-11-06T08:47:43.763Z,12.63
2022-11-06T08:57:45.798Z,12.63
2022-11-06T09:07:47.218Z,14.23
2022-11-06T09:17:50.549Z,14.10
2022-11-06T09:27:58.925Z,13.20
2022-11-06T09:38:06.442Z,13.63
2022-11-06T09:48:10.593Z,16.30
2022-11-06T09:58:17.332Z,15.70
2022-11-06T10:08:22.264Z,16.83
2022-11-06T10:18:51.703Z,16.93
2022-11-06T10:29:31.816Z,17.23
2022-11-06T10:39:35.821Z,15.63
2022-11-06T10:49:48.106Z,15.03
2022-11-06T10:59:50.272Z,13.57
2022-11-06T11:09:51.821Z,14.20
2022-11-06T11:19:53.298Z,13.43
2022-11-06T11:29:55.859Z,11.00
2022-11-06T11:40:28.377Z,11.53
2022-11-06T11:50:33.961Z,11.33
2022-11-06T12:00:53.216Z,10.80
2022-11-06T12:11:02.647Z,9.93
2022-11-06T12:21:16.093Z,10.67
2022-11-06T12:31:39.377Z,10.00
2022-11-06T12:41:46.633Z,9.83
2022-11-06T12:52:17.547Z,9.50
2022-11-06T13:02:46.478Z,11.20
2022-11-06T13:13:02.944Z,10.87
2022-11-06T13:23:12.810Z,11.37
2022-11-06T13:33:24.332Z,10.90
2022-11-06T13:43:28.615Z,11.73
2022-11-06T13:53:46.040Z,12.90
2022-11-06T14:04:07.358Z,12.77
2022-11-06T14:14:25.362Z,12.40
2022-11-06T14:24:35.259Z,10.73
2022-11-06T14:34:38.767Z,11.80
2022-11-06T14:44:45.302Z,12.00
2022-11-06T14:55:03.447Z,13.80
2022-11-06T15:05:17.727Z,14.53
2022-11-06T15:15:20.558Z,14.83
2022-11-06T15:25:24.012Z,14.60
2022-11-06T15:35:28.612Z,16.57
2022-11-06T15:45:30.154Z,15.50
2022-11-06T15:55:34.895Z,16.93
2022-11-06T16:05:37.495Z,18.97
2022-11-06T16:15:41.752Z,20.67
2022-11-06T16:25:43.565Z,20.77
2022-11-06T16:35:48.040Z,20.67
2022-11-06T16:46:01.078Z,20.17
2022-11-06T16:56:08.013Z,20.40
2022-11-06T17:06:20.176Z,20.00
2022-11-06T17:16:24.643Z,21.27
2022-11-06T17:26:29.236Z,25.43
2022-11-06T17:36:32.887Z,24.07
2022-11-06T17:46:40.208Z,25.10
2022-11-06T17:56:41.717Z,25.07
2022-11-06T18:06:47.641Z,25.37
2022-11-06T18:16:50.052Z,25.33
2022-11-06T18:26:52.161Z,24.90
2022-11-06T18:36:53.667Z,23.97
2022-11-06T18:46:55.142Z,24.37
2022-11-06T18:56:56.589Z,25.00
2022-11-06T19:06:58.050Z,26.37
2022-11-06T19:16:59.507Z,27.00
2022-11-06T19:27:00.950Z,25.00
2022-11-06T19:37:02.394Z,22.43
2022-11-06T19:47:03.939Z,20.60
2022-11-06T19:57:27.143Z,19.80
2022-11-06T20:07:26.896Z,19.93
2022-11-06T20:17:28.376Z,19.73
2022-11-06T20:27:29.851Z,20.73
2022-11-06T20:37:31.973Z,21.20
2022-11-06T20:47:33.433Z,21.03
2022-11-06T20:57:34.936Z,20.30
2022-11-06T21:07:36.415Z,20.77
2022-11-06T21:17:42.442Z,21.10
2022-11-06T21:27:43.961Z,21.43
2022-11-06T21:37:45.417Z,19.43
2022-11-06T21:47:46.877Z,17.97
2022-11-06T21:57:48.342Z,15.67
2022-11-06T22:07:49.782Z,14.43
2022-11-06T22:17:51.587Z,14.73
2022-11-06T22:27:53.172Z,12.23
2022-11-06T22:37:54.616Z,12.30
2022-11-06T22:47:56.044Z,10.77
2022-11-06T22:57:57.521Z,11.30
2022-11-06T23:07:58.968Z,10.87
2022-11-06T23:18:00.528Z,10.53
2022-11-06T23:28:02.403Z,11.23
2022-11-06T23:38:03.844Z,11.30
2022-11-06T23:48:11.885Z,10.57
2022-11-06T23:58:13.386Z,8.43
